Time,TemperatureF,DewpointF,PressureIn,WindDirection,WindDirectionDegrees,WindSpeedMPH,WindSpeedGustMPH,Humidity,HourlyPrecipIn,Conditions,Clouds,dailyrainin,SoftwareType,DateUTC
2013-02-15 00:01:00,49.0,38.0,29.94,NE,42,3.0,3.0,66,0.00,,,0.02,,2013-02-14 23:01:00,
2013-02-15 00:11:00,49.0,38.0,29.94,NE,42,3.0,3.0,66,0.00,,,0.02,,2013-02-14 23:11:00,
2013-02-15 00:21:00,49.0,38.0,29.94,NE,42,3.0,3.0,65,0.00,,,0.02,,2013-02-14 23:21:00,
2013-02-15 00:31:00,48.0,38.0,29.94,NE,43,0.0,0.0,68,0.00,,,0.02,,2013-02-14 23:31:00,
2013-02-15 00:41:00,48.0,38.0,29.94,NE,43,0.0,0.0,68,0.00,,,0.02,,2013-02-14 23:41:00,
2013-02-15 00:52:00,48.0,38.0,29.94,NE,43,2.0,2.0,69,0.00,,,0.02,,2013-02-14 23:52:00,
2013-02-15 01:01:00,48.0,39.0,29.94,NE,43,1.0,2.0,71,0.00,,,0.01,,2013-02-15 00:01:00,
2013-02-15 01:11:00,48.0,39.0,29.94,NE,43,1.0,2.0,71,0.00,,,0.01,,2013-02-15 00:11:00,
2013-02-15 01:21:00,48.0,39.0,29.94,NE,43,0.0,0.0,71,0.00,,,0.01,,2013-02-15 00:21:00,
2013-02-15 01:31:00,48.0,39.0,29.95,NE,43,0.0,0.0,71,0.00,,,0.01,,2013-02-15 00:31:00,
2013-02-15 01:41:00,48.0,39.0,29.95,NE,43,0.0,0.0,71,0.00,,,0.01,,2013-02-15 00:41:00,
2013-02-15 01:51:00,48.0,40.0,29.95,NE,43,0.0,0.0,73,0.00,,,0.01,,2013-02-15 00:51:00,
2013-02-15 02:01:00,48.0,40.0,29.95,NE,43,2.0,3.0,75,0.00,,,0.01,,2013-02-15 01:01:00,
2013-02-15 02:11:00,48.0,40.0,29.95,NE,43,2.0,3.0,75,0.00,,,0.01,,2013-02-15 01:11:00,
2013-02-15 02:21:00,48.0,40.0,29.95,NE,43,2.0,2.0,75,0.00,,,0.01,,2013-02-15 01:21:00,
2013-02-15 02:31:00,48.0,39.0,29.94,NE,43,2.0,2.0,72,0.00,,,0.01,,2013-02-15 01:31:00,
2013-02-15 02:41:00,48.0,39.0,29.94,NE,43,2.0,2.0,72,0.00,,,0.01,,2013-02-15 01:41:00,
2013-02-15 02:51:00,48.0,39.0,29.94,NE,43,0.0,1.0,72,0.00,,,0.01,,2013-02-15 01:51:00,
2013-02-15 03:01:00,48.0,39.0,29.94,NE,43,0.0,0.0,70,0.00,,,0.01,,2013-02-15 02:01:00,
2013-02-15 03:11:00,47.0,38.0,29.94,NE,43,0.0,1.0,71,0.00,,,0.01,,2013-02-15 02:11:00,
2013-02-15 03:21:00,47.0,38.0,29.94,NE,43,0.0,1.0,71,0.00,,,0.01,,2013-02-15 02:21:00,
2013-02-15 03:31:00,47.0,38.0,29.94,NE,43,2.0,2.0,72,0.00,,,0.01,,2013-02-15 02:31:00,
2013-02-15 03:41:00,47.0,38.0,29.94,NE,43,2.0,2.0,72,0.00,,,0.01,,2013-02-15 02:41:00,
2013-02-15 03:51:00,48.0,39.0,29.93,NE,43,2.0,3.0,72,0.00,,,0.01,,2013-02-15 02:51:00,
2013-02-15 04:01:00,47.0,38.0,29.94,NE,43,2.0,3.0,72,0.00,,,0.01,,2013-02-15 03:01:00,
2013-02-15 04:11:00,48.0,39.0,29.94,NE,43,2.0,3.0,70,0.00,,,0.01,,2013-02-15 03:11:00,
2013-02-15 04:21:00,48.0,39.0,29.94,NE,43,2.0,3.0,70,0.00,,,0.01,,2013-02-15 03:21:00,
2013-02-15 04:32:00,48.0,39.0,29.93,NE,43,2.0,2.0,71,0.00,,,0.01,,2013-02-15 03:32:00,
2013-02-15 04:41:00,48.0,39.0,29.93,NE,43,2.0,2.0,71,0.00,,,0.01,,2013-02-15 03:41:00,
2013-02-15 04:51:00,48.0,39.0,29.93,NE,43,0.0,2.0,72,0.00,,,0.01,,2013-02-15 03:51:00,
2013-02-15 05:01:00,48.0,40.0,29.93,NE,43,1.0,2.0,74,0.00,,,0.01,,2013-02-15 04:01:00,
2013-02-15 05:11:00,48.0,40.0,29.93,NE,43,1.0,2.0,74,0.00,,,0.01,,2013-02-15 04:11:00,
2013-02-15 05:21:00,47.0,39.0,29.93,NE,43,2.0,2.0,75,0.00,,,0.01,,2013-02-15 04:21:00,
2013-02-15 05:31:00,48.0,41.0,29.93,NE,43,2.0,3.0,76,0.00,,,0.01,,2013-02-15 04:31:00,
2013-02-15 05:41:00,48.0,41.0,29.93,NE,43,2.0,3.0,76,0.00,,,0.01,,2013-02-15 04:41:00,
2013-02-15 05:51:00,47.0,40.0,29.93,NE,43,2.0,2.0,76,0.00,,,0.01,,2013-02-15 04:51:00,
2013-02-15 06:01:00,47.0,40.0,29.93,NE,43,0.0,0.0,76,0.00,,,0.00,,2013-02-15 05:01:00,
2013-02-15 06:11:00,47.0,40.0,29.93,NE,43,0.0,0.0,76,0.00,,,0.00,,2013-02-15 05:11:00,
2013-02-15 06:22:00,47.0,40.0,29.93,NE,43,0.0,0.0,76,0.00,,,0.00,,2013-02-15 05:22:00,
2013-02-15 06:32:00,47.0,40.0,29.93,NE,43,0.0,2.0,77,0.00,,,0.00,,2013-02-15 05:32:00,
2013-02-15 06:41:00,47.0,40.0,29.93,NE,43,0.0,2.0,77,0.00,,,0.00,,2013-02-15 05:41:00,
2013-02-15 06:52:00,47.0,40.0,29.94,NE,43,0.0,0.0,77,0.00,,,0.00,,2013-02-15 05:52:00,
2013-02-15 07:01:00,46.0,40.0,29.93,NE,43,2.0,2.0,79,0.00,,,0.00,,2013-02-15 06:01:00,
2013-02-15 07:11:00,46.0,40.0,29.94,NE,43,3.0,3.0,80,0.00,,,0.00,,2013-02-15 06:11:00,
2013-02-15 07:21:00,46.0,40.0,29.94,NE,43,3.0,3.0,80,0.00,,,0.00,,2013-02-15 06:21:00,
2013-02-15 07:31:00,46.0,40.0,29.94,NE,43,3.0,3.0,78,0.00,,,0.00,,2013-02-15 06:31:00,
2013-02-15 07:41:00,46.0,40.0,29.94,NE,43,3.0,3.0,78,0.00,,,0.00,,2013-02-15 06:41:00,
2013-02-15 07:51:00,47.0,41.0,29.94,NE,43,2.0,3.0,78,0.00,,,0.00,,2013-02-15 06:51:00,
2013-02-15 08:01:00,48.0,41.0,29.94,NE,43,0.0,0.0,76,0.00,,,0.00,,2013-02-15 07:01:00,
2013-02-15 08:11:00,48.0,41.0,29.94,NE,43,0.0,0.0,76,0.00,,,0.00,,2013-02-15 07:11:00,
2013-02-15 08:21:00,48.0,41.0,29.94,NE,43,0.0,1.0,77,0.00,,,0.00,,2013-02-15 07:21:00,
2013-02-15 08:31:00,48.0,41.0,29.95,NE,43,0.0,0.0,77,0.00,,,0.00,,2013-02-15 07:31:00,
2013-02-15 08:41:00,48.0,41.0,29.95,NE,43,0.0,0.0,77,0.00,,,0.00,,2013-02-15 07:41:00,
2013-02-15 08:52:00,49.0,42.0,29.95,NE,43,0.0,0.0,78,0.00,,,0.00,,2013-02-15 07:52:00,
2013-02-15 09:01:00,48.0,41.0,29.96,NE,43,0.0,0.0,77,0.00,,,0.00,,2013-02-15 08:01:00,
2013-02-15 09:11:00,48.0,41.0,29.96,NE,43,0.0,0.0,77,0.00,,,0.00,,2013-02-15 08:11:00,
2013-02-15 09:21:00,48.0,41.0,29.96,NE,43,0.0,1.0,76,0.00,,,0.00,,2013-02-15 08:21:00,
2013-02-15 09:31:00,49.0,42.0,29.96,NE,43,0.0,0.0,76,0.00,,,0.00,,2013-02-15 08:31:00,
2013-02-15 09:41:00,49.0,42.0,29.96,NE,43,0.0,0.0,76,0.00,,,0.00,,2013-02-15 08:41:00,
2013-02-15 09:52:00,49.0,42.0,29.96,NE,43,0.0,0.0,77,0.00,,,0.00,,2013-02-15 08:52:00,
2013-02-15 10:01:00,50.0,43.0,29.96,NE,38,3.0,3.0,76,0.00,,,0.00,,2013-02-15 09:01:00,
2013-02-15 10:11:00,50.0,43.0,29.96,NE,38,3.0,3.0,76,0.00,,,0.00,,2013-02-15 09:11:00,
2013-02-15 10:21:00,50.0,42.0,29.97,NW,321,4.0,5.0,74,0.00,,,0.00,,2013-02-15 09:21:00,
2013-02-15 10:31:00,50.0,41.0,29.97,WNW,288,3.0,3.0,71,0.00,,,0.00,,2013-02-15 09:31:00,
2013-02-15 10:41:00,50.0,41.0,29.97,WNW,288,3.0,3.0,71,0.00,,,0.00,,2013-02-15 09:41:00,
2013-02-15 10:51:00,51.0,42.0,29.97,WNW,301,3.0,3.0,70,0.00,,,0.00,,2013-02-15 09:51:00,
2013-02-15 11:01:00,51.0,41.0,29.98,West,262,2.0,5.0,68,0.00,,,0.00,,2013-02-15 10:01:00,
2013-02-15 11:11:00,51.0,41.0,29.98,West,262,2.0,5.0,68,0.00,,,0.00,,2013-02-15 10:11:00,
2013-02-15 11:21:00,51.0,41.0,29.97,WNW,289,2.0,5.0,68,0.00,,,0.00,,2013-02-15 10:21:00,
2013-02-15 11:31:00,52.0,41.0,29.97,NW,308,3.0,3.0,66,0.00,,,0.00,,2013-02-15 10:31:00,
2013-02-15 11:41:00,52.0,41.0,29.97,NW,308,3.0,3.0,66,0.00,,,0.00,,2013-02-15 10:41:00,
2013-02-15 11:51:00,52.0,40.0,29.97,NW,313,3.0,3.0,64,0.00,,,0.00,,2013-02-15 10:51:00,
2013-02-15 12:01:00,52.0,40.0,29.97,WSW,254,3.0,4.0,64,0.00,,,0.00,,2013-02-15 11:01:00,
2013-02-15 12:11:00,52.0,40.0,29.97,WSW,254,3.0,4.0,64,0.00,,,0.00,,2013-02-15 11:11:00,
2013-02-15 12:22:00,52.0,41.0,29.97,WSW,239,4.0,6.0,65,0.00,,,0.00,,2013-02-15 11:22:00,
2013-02-15 12:31:00,52.0,40.0,29.96,SW,234,6.0,10.0,64,0.00,,,0.00,,2013-02-15 11:31:00,
2013-02-15 12:42:00,52.0,40.0,29.96,SW,234,6.0,10.0,64,0.00,,,0.00,,2013-02-15 11:42:00,
2013-02-15 12:52:00,53.0,40.0,29.96,West,267,4.0,5.0,62,0.00,,,0.00,,2013-02-15 11:52:00,
2013-02-15 13:01:00,53.0,40.0,29.96,WNW,296,8.0,9.0,61,0.00,,,0.00,,2013-02-15 12:01:00,
2013-02-15 13:11:00,53.0,40.0,29.96,WNW,296,8.0,9.0,61,0.00,,,0.00,,2013-02-15 12:11:00,
2013-02-15 13:21:00,53.0,40.0,29.96,WNW,293,3.0,7.0,61,0.00,,,0.00,,2013-02-15 12:21:00,
2013-02-15 13:31:00,53.0,42.0,29.95,WSW,240,7.0,7.0,65,0.00,,,0.00,,2013-02-15 12:31:00,
2013-02-15 13:42:00,53.0,42.0,29.95,WSW,240,7.0,7.0,65,0.00,,,0.00,,2013-02-15 12:42:00,
2013-02-15 13:52:00,53.0,42.0,29.95,WSW,244,6.0,7.0,65,0.00,,,0.00,,2013-02-15 12:52:00,
2013-02-15 14:02:00,53.0,42.0,29.95,SSW,201,7.0,8.0,67,0.00,,,0.00,,2013-02-15 13:02:00,
2013-02-15 14:11:00,53.0,42.0,29.95,SSW,201,7.0,8.0,67,0.00,,,0.00,,2013-02-15 13:11:00,
2013-02-15 14:21:00,53.0,42.0,29.95,SSW,201,7.0,8.0,67,0.00,,,0.00,,2013-02-15 13:21:00,
2013-02-15 14:31:00,53.0,43.0,29.95,South,190,4.0,4.0,68,0.00,,,0.00,,2013-02-15 13:31:00,
2013-02-15 14:41:00,53.0,43.0,29.95,South,190,4.0,4.0,68,0.00,,,0.00,,2013-02-15 13:41:00,
2013-02-15 14:52:00,53.0,43.0,29.95,South,173,3.0,4.0,68,0.00,,,0.00,,2013-02-15 13:52:00,
2013-02-15 15:01:00,54.0,43.0,29.94,WSW,256,4.0,9.0,66,0.00,,,0.00,,2013-02-15 14:01:00,
2013-02-15 15:11:00,54.0,43.0,29.94,WSW,256,4.0,9.0,66,0.00,,,0.00,,2013-02-15 14:11:00,
2013-02-15 15:21:00,53.0,42.0,29.95,WSW,244,3.0,6.0,67,0.00,,,0.00,,2013-02-15 14:21:00,
2013-02-15 15:32:00,52.0,43.0,29.95,WNW,300,5.0,5.0,70,0.00,,,0.00,,2013-02-15 14:32:00,
2013-02-15 15:41:00,52.0,43.0,29.95,WNW,300,5.0,5.0,70,0.00,,,0.00,,2013-02-15 14:41:00,
2013-02-15 15:52:00,52.0,43.0,29.95,West,260,3.0,3.0,71,0.00,,,0.00,,2013-02-15 14:52:00,
2013-02-15 16:01:00,52.0,43.0,29.95,WNW,289,6.0,6.0,72,0.00,,,0.00,,2013-02-15 15:01:00,
2013-02-15 16:11:00,52.0,43.0,29.95,WNW,289,6.0,6.0,72,0.00,,,0.00,,2013-02-15 15:11:00,
2013-02-15 16:21:00,52.0,43.0,29.95,NW,305,2.0,5.0,72,0.00,,,0.00,,2013-02-15 15:21:00,
2013-02-15 16:32:00,52.0,43.0,29.94,WNW,296,3.0,5.0,72,0.00,,,0.00,,2013-02-15 15:32:00,
2013-02-15 16:41:00,52.0,43.0,29.94,WNW,301,3.0,3.0,72,0.00,,,0.00,,2013-02-15 15:41:00,
2013-02-15 16:51:00,52.0,43.0,29.94,WNW,301,3.0,3.0,72,0.00,,,0.00,,2013-02-15 15:51:00,
2013-02-15 17:01:00,51.0,43.0,29.94,WNW,301,1.0,2.0,73,0.00,,,0.00,,2013-02-15 16:01:00,
2013-02-15 17:11:00,51.0,43.0,29.94,WNW,301,1.0,2.0,73,0.00,,,0.00,,2013-02-15 16:11:00,
2013-02-15 17:21:00,51.0,42.0,29.95,WNW,301,0.0,0.0,72,0.00,,,0.00,,2013-02-15 16:21:00,
2013-02-15 17:31:00,51.0,43.0,29.95,WNW,301,2.0,3.0,73,0.00,,,0.00,,2013-02-15 16:31:00,
2013-02-15 17:42:00,51.0,43.0,29.95,WNW,301,2.0,3.0,73,0.00,,,0.00,,2013-02-15 16:42:00,
2013-02-15 17:51:00,50.0,43.0,29.95,WSW,240,11.0,11.0,76,0.00,,,0.00,,2013-02-15 16:51:00,
2013-02-15 18:01:00,48.0,43.0,29.95,West,265,3.0,3.0,83,0.00,,,0.00,,2013-02-15 17:01:00,
2013-02-15 18:11:00,48.0,43.0,29.95,WSW,247,3.0,3.0,84,0.01,,,0.01,,2013-02-15 17:11:00,
2013-02-15 18:21:00,48.0,43.0,29.95,WSW,247,3.0,3.0,84,0.01,,,0.01,,2013-02-15 17:21:00,
2013-02-15 18:31:00,47.0,43.0,29.95,WSW,246,2.0,2.0,85,0.01,,,0.01,,2013-02-15 17:31:00,
2013-02-15 18:41:00,47.0,43.0,29.95,WSW,246,2.0,2.0,85,0.01,,,0.01,,2013-02-15 17:41:00,
2013-02-15 18:52:00,48.0,44.0,29.95,WSW,246,0.0,0.0,86,0.01,,,0.01,,2013-02-15 17:52:00,
2013-02-15 19:01:00,48.0,44.0,29.95,NE,38,3.0,3.0,86,0.01,,,0.01,,2013-02-15 18:01:00,
2013-02-15 19:11:00,48.0,44.0,29.95,NE,38,3.0,3.0,86,0.01,,,0.01,,2013-02-15 18:11:00,
2013-02-15 19:21:00,48.0,44.0,29.95,East,90,4.0,4.0,86,0.00,,,0.01,,2013-02-15 18:21:00,
2013-02-15 19:31:00,48.0,44.0,29.95,East,89,1.0,2.0,86,0.00,,,0.01,,2013-02-15 18:31:00,
2013-02-15 19:41:00,48.0,44.0,29.95,East,89,1.0,2.0,86,0.00,,,0.01,,2013-02-15 18:41:00,
2013-02-15 19:52:00,48.0,44.0,29.95,East,89,0.0,2.0,86,0.00,,,0.01,,2013-02-15 18:52:00,
2013-02-15 20:01:00,48.0,44.0,29.95,East,89,0.0,1.0,85,0.00,,,0.01,,2013-02-15 19:01:00,
2013-02-15 20:11:00,48.0,44.0,29.95,East,89,0.0,1.0,85,0.00,,,0.01,,2013-02-15 19:11:00,
2013-02-15 20:21:00,48.0,44.0,29.95,East,89,0.0,0.0,85,0.00,,,0.01,,2013-02-15 19:21:00,
2013-02-15 20:32:00,48.0,43.0,29.95,East,89,1.0,2.0,84,0.00,,,0.01,,2013-02-15 19:32:00,
2013-02-15 20:41:00,48.0,43.0,29.95,East,89,1.0,2.0,84,0.00,,,0.01,,2013-02-15 19:41:00,
2013-02-15 20:51:00,49.0,44.0,29.95,East,89,2.0,3.0,84,0.00,,,0.01,,2013-02-15 19:51:00,
2013-02-15 21:01:00,49.0,44.0,29.95,East,89,4.0,6.0,84,0.00,,,0.01,,2013-02-15 20:01:00,
2013-02-15 21:11:00,49.0,44.0,29.95,East,89,4.0,6.0,84,0.00,,,0.01,,2013-02-15 20:11:00,
2013-02-15 21:21:00,49.0,45.0,29.94,East,89,3.0,6.0,85,0.00,,,0.01,,2013-02-15 20:21:00,
2013-02-15 21:32:00,49.0,45.0,29.95,East,90,2.0,5.0,85,0.00,,,0.01,,2013-02-15 20:32:00,
2013-02-15 21:42:00,49.0,45.0,29.95,East,90,2.0,5.0,85,0.00,,,0.01,,2013-02-15 20:42:00,
2013-02-15 21:52:00,49.0,45.0,29.95,East,90,0.0,5.0,85,0.00,,,0.01,,2013-02-15 20:52:00,
2013-02-15 22:01:00,49.0,45.0,29.94,East,100,2.0,4.0,86,0.00,,,0.01,,2013-02-15 21:01:00,
2013-02-15 22:11:00,49.0,45.0,29.94,East,100,2.0,4.0,86,0.00,,,0.01,,2013-02-15 21:11:00,
2013-02-15 22:21:00,49.0,45.0,29.95,East,100,3.0,3.0,86,0.00,,,0.01,,2013-02-15 21:21:00,
2013-02-15 22:31:00,49.0,45.0,29.94,ESE,115,2.0,2.0,85,0.00,,,0.01,,2013-02-15 21:31:00,
2013-02-15 22:42:00,49.0,45.0,29.94,ESE,115,2.0,2.0,85,0.00,,,0.01,,2013-02-15 21:42:00,
2013-02-15 22:51:00,49.0,45.0,29.95,South,188,3.0,3.0,85,0.01,,,0.02,,2013-02-15 21:51:00,
2013-02-15 23:02:00,49.0,45.0,29.94,South,186,0.0,0.0,87,0.03,,,0.04,,2013-02-15 22:02:00,
2013-02-15 23:11:00,48.0,45.0,29.94,South,186,0.0,0.0,88,0.03,,,0.04,,2013-02-15 22:11:00,
2013-02-15 23:21:00,48.0,45.0,29.94,South,186,0.0,0.0,88,0.03,,,0.04,,2013-02-15 22:21:00,
2013-02-15 23:31:00,48.0,45.0,29.95,South,186,0.0,1.0,89,0.05,,,0.06,,2013-02-15 22:31:00,
2013-02-15 23:41:00,48.0,45.0,29.95,South,186,0.0,1.0,89,0.05,,,0.06,,2013-02-15 22:41:00,
2013-02-15 23:51:00,48.0,45.0,29.95,SE,124,2.0,2.0,89,0.05,,,0.07,,2013-02-15 22:51:00,